Time;durP1;ratioP1;P1;durP2;ratioP2;P2;SDS_P1;SDS_P2;PMS_P1;PMS_P2;Temp;Humidity;BMP_temperature;BMP_pressure;BME280_temperature;BME280_humidity;BME280_pressure;Samples;Min_cycle;Max_cycle;Signal;HPM_P1;HPM_P2
2022/05/31 00:01:07;;;;;;;2.17;1.60;;;;;;;6.94;84.38;100454.16;5035427;28;20060;-61
2022/05/31 00:03:40;;;;;;;2.58;1.77;;;;;;;6.98;85.22;100446.38;5035517;28;20061;-61
2022/05/31 00:06:10;;;;;;;1.63;1.40;;;;;;;7.13;84.06;100445.53;5035411;28;20373;-61
2022/05/31 00:08:46;;;;;;;2.92;1.70;;;;;;;7.20;84.20;100462.84;5034434;28;20053;-61
2022/05/31 00:11:17;;;;;;;1.92;1.48;;;;;;;7.10;83.81;100463.72;5035171;28;20061;-60
2022/05/31 00:13:48;;;;;;;2.67;1.73;;;;;;;7.08;84.84;100457.66;5035172;28;20109;-60
2022/05/31 00:16:18;;;;;;;2.28;1.60;;;;;;;7.03;84.29;100472.38;5033880;28;20067;-61
2022/05/31 00:18:51;;;;;;;1.92;1.38;;;;;;;7.13;84.86;100466.31;5034650;28;20252;-60
2022/05/31 00:21:23;;;;;;;1.27;1.17;;;;;;;7.28;84.20;100476.72;5034760;28;20057;-60
2022/05/31 00:23:54;;;;;;;2.47;1.10;;;;;;;7.29;82.25;100478.47;5033521;28;20060;-61
2022/05/31 00:26:24;;;;;;;1.30;1.10;;;;;;;7.30;82.78;100485.38;5034368;28;20057;-61
2022/05/31 00:28:55;;;;;;;1.85;1.00;;;;;;;7.33;83.60;100485.38;5034641;28;20053;-61
2022/05/31 00:31:26;;;;;;;3.50;2.15;;;;;;;7.51;83.29;100494.03;5034837;28;20344;-60
2022/05/31 00:33:58;;;;;;;2.83;1.05;;;;;;;7.75;80.99;100488.84;5032357;28;20057;-61
2022/05/31 00:36:29;;;;;;;3.63;1.60;;;;;;;7.85;80.62;100478.41;5033720;28;20053;-60
2022/05/31 00:38:59;;;;;;;1.63;0.90;;;;;;;7.57;81.51;100483.66;4980313;28;20338;-61
2022/05/31 00:41:32;;;;;;;6.65;2.28;;;;;;;7.64;82.64;100489.69;5027574;28;20050;-60
2022/05/31 00:44:04;;;;;;;2.78;1.55;;;;;;;7.75;81.20;100483.63;5034855;28;20053;-61
2022/05/31 00:46:46;;;;;;;3.75;1.52;;;;;;;7.82;80.13;100478.44;5034489;28;20243;-61
2022/05/31 00:49:28;;;;;;;8.30;2.10;;;;;;;7.84;79.95;100479.28;5034482;28;20053;-61
2022/05/31 00:52:01;;;;;;;2.42;1.35;;;;;;;8.10;79.92;100477.50;5034126;28;20049;-61
2022/05/31 00:54:34;;;;;;;3.85;1.80;;;;;;;8.17;78.93;100458.38;5034370;28;20061;-61
2022/05/31 00:57:06;;;;;;;13.50;3.42;;;;;;;8.12;80.15;100465.34;5032361;28;20045;-63
2022/05/31 00:59:42;;;;;;;3.05;1.70;;;;;;;8.15;78.86;100467.94;5034126;28;20053;-61
2022/05/31 01:02:15;;;;;;;6.30;2.75;;;;;;;8.12;79.24;100467.09;5034293;28;20081;-61
2022/05/31 01:04:51;;;;;;;1.48;1.38;;;;;;;8.26;78.83;100465.28;5034352;28;20105;-61
2022/05/31 01:07:21;;;;;;;2.67;1.55;;;;;;;8.25;79.57;100473.13;5033994;28;20076;-61
2022/05/31 01:09:53;;;;;;;30.50;13.70;;;;;;;8.21;77.91;100438.41;5034221;28;20048;-61
2022/05/31 01:12:24;;;;;;;1.75;1.33;;;;;;;8.01;78.54;100433.25;5034219;28;20091;-60
2022/05/31 01:14:55;;;;;;;3.63;1.10;;;;;;;7.91;78.19;100450.66;5033606;28;20107;-61
2022/05/31 01:17:26;;;;;;;2.67;1.42;;;;;;;8.06;80.21;100452.34;5033821;28;20112;-60
2022/05/31 01:19:59;;;;;;;2.88;1.02;;;;;;;8.13;78.27;100464.47;5034006;28;20083;-59
2022/05/31 01:22:38;;;;;;;1.65;1.38;;;;;;;7.45;78.10;100364.06;5034459;28;20052;-60
2022/05/31 01:25:24;;;;;;;1.60;1.00;;;;;;;7.95;78.72;100454.13;5032067;28;20107;-61
2022/05/31 01:28:06;;;;;;;1.13;0.95;;;;;;;8.00;78.23;100441.94;5033619;28;20092;-61
2022/05/31 01:30:41;;;;;;;1.83;1.20;;;;;;;8.16;78.45;100446.25;5031465;28;20052;-61
2022/05/31 01:33:18;;;;;;;1.65;1.10;;;;;;;8.35;78.69;100443.56;5032302;28;20064;-61
2022/05/31 01:35:48;;;;;;;2.25;0.90;;;;;;;8.46;76.91;100452.22;5032957;28;20462;-62
2022/05/31 01:38:25;;;;;;;2.50;1.27;;;;;;;8.29;77.71;100456.63;5031857;28;20297;-61
2022/05/31 01:41:03;;;;;;;0.98;0.80;;;;;;;8.07;76.30;100446.28;5027744;28;20054;-60
2022/05/31 01:43:34;;;;;;;2.42;1.63;;;;;;;7.91;77.83;100458.47;5032449;28;20131;-60
2022/05/31 01:46:11;;;;;;;5.00;0.88;;;;;;;7.98;77.89;100464.50;5031858;28;20069;-59
2022/05/31 01:48:43;;;;;;;1.77;1.00;;;;;;;8.28;78.30;100454.88;5033003;28;20121;-60
2022/05/31 01:51:14;;;;;;;1.38;0.88;;;;;;;8.47;76.90;100443.53;5033074;28;20061;-59
2022/05/31 01:53:46;;;;;;;0.85;0.80;;;;;;;8.72;75.05;100443.41;5033297;28;20063;-61
2022/05/31 01:56:18;;;;;;;2.75;1.25;;;;;;;8.93;75.57;100432.84;5033142;28;20065;-61
2022/05/31 01:58:51;;;;;;;1.15;0.73;;;;;;;9.24;74.64;100432.63;5033257;28;20137;-61
2022/05/31 02:01:28;;;;;;;;;;;;;;;9.59;75.14;100419.25;5034024;28;20049;-58
2022/05/31 02:03:59;;;;;;;1.17;0.85;;;;;;;9.47;72.06;100421.97;5033578;28;19925;-60
2022/05/31 02:06:33;;;;;;;1.15;0.80;;;;;;;9.29;72.79;100423.03;5033696;28;20072;-60
2022/05/31 02:09:07;;;;;;;1.08;0.98;;;;;;;9.32;72.57;100415.16;5033437;28;20061;-59
2022/05/31 02:11:39;;;;;;;1.63;0.70;;;;;;;9.55;71.92;100412.34;5033154;28;20061;-60
2022/05/31 02:14:10;;;;;;;5.68;2.60;;;;;;;9.57;72.27;100420.16;5033098;28;20237;-61
2022/05/31 02:16:40;;;;;;;1.52;1.08;;;;;;;9.42;71.99;100406.38;5033415;28;20175;-61
2022/05/31 02:19:23;;;;;;;3.17;1.00;;;;;;;9.26;73.65;100415.19;5033285;28;20061;-61
2022/05/31 02:21:55;;;;;;;5.68;1.10;;;;;;;9.40;73.90;100408.13;5033031;28;20059;-61
2022/05/31 02:24:28;;;;;;;2.08;1.08;;;;;;;9.42;74.56;100405.50;5033073;28;20121;-61
2022/05/31 02:26:59;;;;;;;5.07;0.90;;;;;;;9.50;72.25;100409.75;5033299;28;20041;-61
2022/05/31 02:29:32;;;;;;;2.03;1.05;;;;;;;9.29;73.77;100394.34;5033377;28;20111;-61
2022/05/31 02:32:06;;;;;;;5.63;0.90;;;;;;;9.43;73.52;100387.22;5036414;28;20275;-61
2022/05/31 02:34:39;;;;;;;7.28;1.90;;;;;;;9.38;74.02;100346.44;5037163;28;20411;-61
2022/05/31 02:37:10;;;;;;;4.38;0.75;;;;;;;9.59;72.32;100366.22;5037079;28;20071;-61
2022/05/31 02:39:43;;;;;;;0.70;0.70;;;;;;;9.78;72.37;100367.72;5036805;28;20067;-61
2022/05/31 02:42:14;;;;;;;0.60;0.50;;;;;;;10.01;71.53;100374.41;5037025;28;20244;-61
2022/05/31 02:44:45;;;;;;;2.95;0.70;;;;;;;9.99;71.16;100371.84;5036589;28;21027;-62
2022/05/31 02:47:15;;;;;;;6.57;1.25;;;;;;;10.03;70.99;100357.00;5036922;28;20116;-61
2022/05/31 02:49:47;;;;;;;4.28;1.10;;;;;;;9.88;72.15;100369.38;5036897;28;20103;-61
2022/05/31 02:52:18;;;;;;;2.75;0.90;;;;;;;9.35;71.47;100289.97;5036885;28;20052;-61
2022/05/31 02:54:51;;;;;;;5.22;1.60;;;;;;;9.48;72.51;100356.78;5036605;28;20104;-61
2022/05/31 02:57:22;;;;;;;2.17;1.42;;;;;;;9.53;71.63;100355.84;5036766;28;20054;-61
2022/05/31 02:59:52;;;;;;;1.38;0.80;;;;;;;9.62;70.68;100353.16;5036768;28;20053;-61
2022/05/31 03:02:23;;;;;;;2.03;0.80;;;;;;;9.45;71.26;100351.56;5036763;28;20053;-61
2022/05/31 03:04:54;;;;;;;0.60;0.60;;;;;;;9.39;70.21;100351.66;5036583;28;20112;-60
2022/05/31 03:07:24;;;;;;;2.83;0.65;;;;;;;9.60;72.28;100347.06;5035545;28;20061;-61
2022/05/31 03:09:56;;;;;;;7.38;0.90;;;;;;;9.68;71.54;100347.84;5035426;28;20049;-60
2022/05/31 03:12:30;;;;;;;2.10;0.90;;;;;;;9.64;71.07;100338.34;5035930;28;20064;-60
2022/05/31 03:15:05;;;;;;;4.70;1.15;;;;;;;9.69;71.96;100332.19;5035502;28;20055;-61
2022/05/31 03:17:39;;;;;;;1.95;0.80;;;;;;;9.56;72.18;100327.09;5035963;28;20053;-60
2022/05/31 03:20:15;;;;;;;1.98;0.85;;;;;;;9.66;71.83;100315.69;5035977;28;20053;-62
2022/05/31 03:22:49;;;;;;;1.10;0.75;;;;;;;9.54;71.69;100316.72;5034711;28;20124;-61
2022/05/31 03:25:25;;;;;;;1.27;0.77;;;;;;;9.66;71.95;100310.47;5035873;28;20374;-60
2022/05/31 03:28:00;;;;;;;1.13;0.70;;;;;;;8.97;72.08;100231.28;5035561;28;20061;-61
2022/05/31 03:30:33;;;;;;;0.70;0.70;;;;;;;9.60;73.12;100300.13;5034678;28;20053;-62
2022/05/31 03:33:04;;;;;;;1.42;0.60;;;;;;;9.77;71.64;100308.59;5033457;28;20064;-60
2022/05/31 03:35:35;;;;;;;1.48;0.55;;;;;;;9.93;70.61;100304.94;5034331;28;20060;-59
2022/05/31 03:38:06;;;;;;;1.67;0.63;;;;;;;10.10;69.48;100311.66;5035771;28;20125;-59
2022/05/31 03:43:27;;;;;;;1.52;0.80;;;;;;;9.82;70.74;100283.31;5034521;28;20351;-59
2022/05/31 03:45:58;;;;;;;1.10;0.70;;;;;;;9.92;71.04;100277.09;5035693;28;20061;-60
2022/05/31 03:48:29;;;;;;;1.70;0.80;;;;;;;9.99;71.05;100287.47;5035718;28;20057;-60
2022/05/31 03:51:00;;;;;;;3.25;0.70;;;;;;;9.91;70.55;100277.13;5035888;28;20054;-60
2022/05/31 03:53:31;;;;;;;1.00;0.75;;;;;;;9.97;70.24;100273.56;5035884;28;20061;-59
2022/05/31 03:56:06;;;;;;;3.47;0.70;;;;;;;9.90;70.49;100247.53;5035076;28;20390;-59
2022/05/31 03:58:36;;;;;;;2.13;1.13;;;;;;;9.89;70.36;100265.84;5035688;28;20049;-62
2022/05/31 04:01:07;;;;;;;3.78;0.88;;;;;;;9.82;71.47;100285.91;5035595;28;20058;-58
2022/05/31 04:03:38;;;;;;;2.70;0.90;;;;;;;9.73;71.64;100280.81;5035769;28;20073;-58
2022/05/31 04:06:08;;;;;;;1.48;1.00;;;;;;;9.71;71.72;100293.91;5035660;28;20057;-61
2022/05/31 04:08:39;;;;;;;1.73;0.90;;;;;;;9.64;70.89;100304.44;5035400;28;20053;-60
2022/05/31 04:11:11;;;;;;;1.08;0.80;;;;;;;9.79;70.57;100293.78;5035376;28;20112;-61
2022/05/31 04:13:42;;;;;;;3.75;1.20;;;;;;;9.68;70.50;100280.00;5035186;28;20088;-60
2022/05/31 04:16:15;;;;;;;4.63;0.80;;;;;;;9.74;71.10;100298.22;5035366;28;20117;-60
2022/05/31 04:18:51;;;;;;;6.15;1.38;;;;;;;9.73;71.20;100293.84;5035166;28;20053;-60
2022/05/31 04:21:22;;;;;;;6.88;1.10;;;;;;;9.97;70.38;100299.66;5035239;28;20096;-60
2022/05/31 04:24:08;;;;;;;4.10;1.02;;;;;;;9.84;70.44;100263.28;5035270;28;20255;-60
2022/05/31 04:26:42;;;;;;;8.85;1.23;;;;;;;10.40;70.40;100304.31;5034926;28;20053;-60
2022/05/31 04:29:13;;;;;;;3.72;1.00;;;;;;;10.30;68.29;100309.66;5034923;28;20663;-60
2022/05/31 04:31:44;;;;;;;2.15;0.93;;;;;;;9.92;70.04;100305.78;5033691;28;20057;-61
2022/05/31 04:34:14;;;;;;;1.13;0.90;;;;;;;9.78;71.29;100305.09;5034953;28;20283;-60
2022/05/31 04:36:45;;;;;;;2.28;1.20;;;;;;;9.61;70.51;100291.41;5034757;28;20356;-60
2022/05/31 04:39:15;;;;;;;1.25;0.90;;;;;;;9.63;71.69;100294.84;5034947;28;20548;-60
2022/05/31 04:41:48;;;;;;;5.25;1.20;;;;;;;9.77;71.34;100285.13;5034012;28;20053;-60
2022/05/31 04:44:18;;;;;;;3.55;1.20;;;;;;;9.91;70.54;100291.03;5034747;28;20057;-61
2022/05/31 04:46:49;;;;;;;6.40;1.30;;;;;;;9.82;71.22;100301.56;5034683;28;20065;-60
2022/05/31 04:49:20;;;;;;;2.28;1.30;;;;;;;9.90;70.56;100294.50;5034642;28;20092;-60
2022/05/31 04:51:50;;;;;;;2.28;1.35;;;;;;;10.11;71.14;100276.84;5033471;28;20217;-60
2022/05/31 04:54:23;;;;;;;6.68;1.35;;;;;;;10.13;69.72;100280.28;5033813;28;20061;-60
2022/05/31 04:56:55;;;;;;;3.03;1.00;;;;;;;10.12;69.26;100289.00;5034318;28;20084;-61
2022/05/31 04:59:25;;;;;;;4.72;1.10;;;;;;;10.15;70.14;100294.19;5034036;28;20061;-60
2022/05/31 05:01:56;;;;;;;4.35;1.10;;;;;;;10.13;70.28;100295.94;5033222;28;20072;-60
2022/05/31 05:04:27;;;;;;;2.35;1.20;;;;;;;10.27;68.95;100299.22;5033915;28;20225;-60
2022/05/31 05:06:58;;;;;;;4.50;1.67;;;;;;;10.13;70.11;100290.72;5032969;28;20076;-59
2022/05/31 05:09:29;;;;;;;2.05;1.08;;;;;;;10.38;68.27;100295.63;5031877;28;20314;-59
2022/05/31 05:12:01;;;;;;;1.70;1.00;;;;;;;10.35;68.52;100280.84;5033472;28;20062;-59
2022/05/31 05:14:32;;;;;;;8.25;1.27;;;;;;;10.41;69.03;100282.50;5032613;28;20255;-59
2022/05/31 05:17:02;;;;;;;3.35;1.30;;;;;;;10.26;67.69;100258.34;5034286;28;20057;-59
2022/05/31 05:19:33;;;;;;;5.90;1.17;;;;;;;10.42;69.86;100273.81;5034360;28;20068;-59
2022/05/31 05:22:04;;;;;;;5.13;2.40;;;;;;;10.57;69.34;100265.72;5033332;28;20068;-59
2022/05/31 05:24:35;;;;;;;6.82;1.98;;;;;;;10.34;68.55;100212.09;5032238;28;20060;-59
2022/05/31 05:27:07;;;;;;;3.70;1.45;;;;;;;10.68;68.91;100257.69;5031905;28;20388;-60
2022/05/31 05:32:25;;;;;;;1.80;1.30;;;;;;;11.25;66.87;100238.38;5031566;28;20058;-58
2022/05/31 05:34:55;;;;;;;3.63;1.42;;;;;;;11.26;66.73;100240.06;5033004;28;20385;-59
2022/05/31 05:37:26;;;;;;;4.40;1.83;;;;;;;10.76;66.98;100230.56;5032585;28;20332;-59
2022/05/31 05:39:56;;;;;;;3.63;1.55;;;;;;;11.00;67.41;100228.38;5033548;28;20059;-59
2022/05/31 05:42:29;;;;;;;1.92;1.35;;;;;;;11.20;66.84;100228.84;5034015;28;20041;-59
2022/05/31 05:45:00;;;;;;;5.65;2.97;;;;;;;10.80;67.41;100216.53;5033885;28;20053;-59
2022/05/31 05:47:31;;;;;;;2.75;1.30;;;;;;;10.06;68.46;100221.19;5032586;28;20085;-60
2022/05/31 05:50:02;;;;;;;7.05;3.45;;;;;;;9.84;70.51;100226.75;5033788;28;20045;-60
2022/05/31 05:52:33;;;;;;;4.65;2.65;;;;;;;9.78;70.78;100208.53;5033738;28;20057;-59
2022/05/31 05:55:04;;;;;;;6.30;1.98;;;;;;;9.54;70.14;100175.00;5033489;28;20065;-59
2022/05/31 05:57:37;;;;;;;3.78;1.95;;;;;;;9.59;70.32;100183.63;5033289;28;20546;-60
2022/05/31 06:00:09;;;;;;;4.65;1.80;;;;;;;9.92;70.75;100206.63;5033450;28;20059;-60
2022/05/31 06:02:44;;;;;;;6.18;2.22;;;;;;;9.83;68.97;100214.56;5032356;28;20240;-59
2022/05/31 06:05:23;;;;;;;5.32;1.98;;;;;;;9.84;70.36;100211.09;5032709;28;20060;-59
2022/05/31 06:07:59;;;;;;;7.50;2.10;;;;;;;9.99;70.11;100224.81;5032908;28;20061;-60
2022/05/31 06:10:35;;;;;;;5.43;1.75;;;;;;;10.10;71.23;100217.66;5033411;28;20048;-59
2022/05/31 06:13:11;;;;;;;3.10;1.83;;;;;;;10.10;69.09;100207.22;5033039;28;20288;-59
2022/05/31 06:15:48;;;;;;;4.68;2.13;;;;;;;9.95;69.04;100208.31;5032433;28;20061;-59
2022/05/31 06:18:24;;;;;;;9.88;4.78;;;;;;;10.04;70.33;100228.22;5033197;28;20374;-59
2022/05/31 06:20:57;;;;;;;6.70;2.25;;;;;;;10.25;69.44;100217.44;5033040;28;20107;-59
2022/05/31 06:23:28;;;;;;;5.22;1.90;;;;;;;10.47;68.81;100198.84;5033172;28;20053;-59
2022/05/31 06:25:59;;;;;;;12.82;2.30;;;;;;;10.36;68.88;100205.09;5031739;28;20383;-60
2022/05/31 06:28:31;;;;;;;3.10;1.95;;;;;;;10.21;68.18;100221.00;5033394;28;20068;-60
2022/05/31 06:31:02;;;;;;;6.50;2.22;;;;;;;9.89;70.52;100208.41;5033205;28;20314;-60
2022/05/31 06:33:32;;;;;;;21.42;3.42;;;;;;;10.12;70.26;100205.47;5033547;28;20057;-60
2022/05/31 06:36:04;;;;;;;6.45;2.53;;;;;;;10.36;70.00;100207.72;5032233;28;20057;-60
2022/05/31 06:38:35;;;;;;;9.48;2.30;;;;;;;10.44;69.12;100212.81;5032733;28;20049;-60
2022/05/31 06:41:06;;;;;;;8.32;2.25;;;;;;;10.27;68.98;100220.88;5033071;28;20356;-59
2022/05/31 06:43:38;;;;;;;4.75;2.47;;;;;;;10.18;69.25;100210.56;5032711;28;20095;-59
2022/05/31 06:46:10;;;;;;;6.47;2.15;;;;;;;10.07;69.18;100191.59;5031115;28;20060;-60
2022/05/31 06:48:41;;;;;;;5.03;2.00;;;;;;;9.87;69.46;100203.22;5031751;28;20081;-60
2022/05/31 06:51:13;;;;;;;5.80;2.17;;;;;;;9.90;69.77;100187.50;5031930;28;20119;-60
2022/05/31 06:59:31;;;;;;;3.78;2.28;;;;;;;10.19;69.78;100180.97;4991106;28;20285;-60
2022/05/31 07:02:04;;;;;;;3.88;2.17;;;;;;;10.39;68.15;100177.22;5024046;28;20061;-59
2022/05/31 07:04:36;;;;;;;8.23;2.97;;;;;;;10.44;68.86;100176.25;5032540;28;20418;-59
2022/05/31 07:07:07;;;;;;;4.22;1.92;;;;;;;10.27;68.52;100168.66;5032420;28;20067;-60
2022/05/31 07:09:38;;;;;;;4.13;2.13;;;;;;;10.00;69.25;100174.31;5032671;28;20107;-59
2022/05/31 07:12:09;;;;;;;4.55;1.90;;;;;;;9.88;69.66;100177.97;5031433;28;20057;-59
2022/05/31 07:14:41;;;;;;;6.70;1.70;;;;;;;9.73;70.58;100181.66;5031987;28;20053;-59
2022/05/31 07:17:12;;;;;;;7.72;2.15;;;;;;;9.83;71.05;100167.59;5033779;28;20065;-59
2022/05/31 07:19:43;;;;;;;3.95;2.00;;;;;;;9.82;70.68;100155.44;5036056;28;20061;-59
2022/05/31 07:22:34;;;;;;;4.53;2.05;;;;;;;10.14;71.35;100172.34;5034731;28;20053;-59
2022/05/31 07:25:05;;;;;;;4.55;1.73;;;;;;;10.12;69.20;100171.50;5035585;28;20291;-59
2022/05/31 07:27:36;;;;;;;6.35;2.80;;;;;;;9.82;70.00;100176.31;5035735;28;20053;-59
2022/05/31 07:30:10;;;;;;;5.00;2.55;;;;;;;9.70;71.55;100172.13;5035857;28;20068;-59
2022/05/31 07:32:40;;;;;;;18.17;2.78;;;;;;;9.68;71.27;100173.03;5035902;28;20057;-59
2022/05/31 07:35:31;;;;;;;4.45;2.05;;;;;;;9.53;71.45;100173.25;5036019;28;20045;-59
2022/05/31 07:38:07;;;;;;;6.03;2.10;;;;;;;9.37;71.44;100163.03;5035981;28;20084;-59
2022/05/31 07:40:38;;;;;;;6.15;3.22;;;;;;;9.19;72.41;100160.66;5035792;28;20060;-59
2022/05/31 07:43:10;;;;;;;3.97;2.72;;;;;;;8.94;72.72;100137.50;5034705;28;20041;-58
2022/05/31 07:45:43;;;;;;;5.32;2.90;;;;;;;9.02;73.03;100177.34;5034541;28;20053;-59
2022/05/31 07:48:14;;;;;;;4.90;2.28;;;;;;;8.80;73.20;100147.19;5035158;28;20501;-60
2022/05/31 07:50:44;;;;;;;5.53;2.97;;;;;;;8.99;73.35;100177.41;5035265;28;20616;-61
2022/05/31 07:53:15;;;;;;;5.85;2.70;;;;;;;8.95;73.06;100170.47;5033804;28;20061;-60
2022/05/31 07:55:54;;;;;;;6.40;2.60;;;;;;;8.86;73.29;100165.38;5035518;28;20061;-60
2022/05/31 07:58:33;;;;;;;6.40;2.67;;;;;;;8.71;73.69;100166.41;5035823;28;20115;-60
2022/05/31 08:01:07;;;;;;;5.68;2.35;;;;;;;8.61;74.03;100170.84;5035501;28;20089;-59
2022/05/31 08:03:39;;;;;;;8.68;2.50;;;;;;;8.47;74.45;100159.69;5035803;28;20120;-59
2022/05/31 08:06:13;;;;;;;9.63;3.25;;;;;;;8.26;75.38;100159.84;5035466;28;20053;-59
2022/05/31 08:08:44;;;;;;;7.75;2.70;;;;;;;8.28;75.66;100163.31;5035335;28;20061;-59
2022/05/31 08:11:17;;;;;;;5.85;2.83;;;;;;;8.00;75.82;100137.50;5035128;28;20053;-59
2022/05/31 08:13:48;;;;;;;5.43;2.67;;;;;;;8.07;75.79;100162.63;5035072;28;20061;-59
2022/05/31 08:16:22;;;;;;;5.32;2.50;;;;;;;7.93;75.63;100154.03;5035108;28;20264;-59
2022/05/31 08:18:55;;;;;;;5.72;2.45;;;;;;;7.86;76.26;100147.16;5034640;28;20112;-59
2022/05/31 08:21:28;;;;;;;4.30;2.92;;;;;;;7.62;76.76;100128.25;5035222;28;20053;-59
2022/05/31 08:24:01;;;;;;;4.85;2.05;;;;;;;7.66;76.98;100160.28;5032905;28;20053;-59
2022/05/31 08:26:52;;;;;;;6.43;2.53;;;;;;;7.56;77.37;100154.28;5034901;28;20087;-60
2022/05/31 08:29:23;;;;;;;5.57;2.42;;;;;;;7.43;77.60;100150.03;5033866;28;20659;-59
2022/05/31 08:31:55;;;;;;;5.03;3.00;;;;;;;7.17;78.93;100166.63;5034870;28;20068;-59
2022/05/31 08:34:25;;;;;;;5.18;2.53;;;;;;;7.02;79.44;100171.88;5034967;28;20103;-59
2022/05/31 08:36:55;;;;;;;5.22;2.22;;;;;;;7.01;79.40;100165.78;5032976;28;20574;-59
2022/05/31 08:39:26;;;;;;;7.38;2.50;;;;;;;6.96;79.45;100161.47;5033761;28;20598;-59
2022/05/31 08:42:03;;;;;;;7.45;2.20;;;;;;;6.77;79.49;100145.97;5034289;28;20053;-60
2022/05/31 08:44:38;;;;;;;6.35;2.45;;;;;;;6.80;80.24;100169.31;5034009;28;20053;-59
2022/05/31 08:47:24;;;;;;;5.05;2.05;;;;;;;6.71;80.23;100156.34;5034265;28;20061;-59
2022/05/31 08:53:16;;;;;;;7.80;2.60;;;;;;;6.64;81.25;100159.81;5033167;28;20349;-59
2022/05/31 08:59:06;;;;;;;4.40;2.63;;;;;;;6.56;80.92;100179.75;5034082;28;20061;-59
2022/05/31 09:01:49;;;;;;;7.60;3.05;;;;;;;6.36;81.48;100170.25;5034131;28;20083;-59
2022/05/31 09:04:24;;;;;;;6.80;3.10;;;;;;;6.29;82.07;100173.75;5034038;28;20057;-59
2022/05/31 09:07:23;;;;;;;5.15;2.53;;;;;;;6.25;82.62;100164.22;5034240;28;20083;-59
2022/05/31 09:10:04;;;;;;;5.57;2.70;;;;;;;6.24;82.98;100160.75;5034064;28;20080;-59
2022/05/31 09:12:43;;;;;;;7.65;2.60;;;;;;;6.26;82.90;100153.84;5034195;28;20081;-59
2022/05/31 09:15:41;;;;;;;3.90;2.20;;;;;;;6.32;82.93;100158.16;5033986;28;20104;-59
2022/05/31 09:18:25;;;;;;;13.15;3.15;;;;;;;6.29;83.41;100163.38;5033920;28;20076;-59
2022/05/31 09:20:58;;;;;;;6.10;2.33;;;;;;;6.25;83.24;100159.03;5033668;28;20069;-59
2022/05/31 09:23:52;;;;;;;7.10;2.97;;;;;;;6.00;83.45;100159.03;5033197;28;21025;-59
2022/05/31 09:27:00;;;;;;;4.07;2.30;;;;;;;5.82;84.98;100166.75;5033459;28;20106;-59
2022/05/31 09:29:47;;;;;;;2.92;2.15;;;;;;;5.82;85.46;100166.75;5033127;28;20291;-59
2022/05/31 09:32:25;;;;;;;4.35;2.42;;;;;;;5.76;85.07;100161.53;5032593;28;20128;-59
2022/05/31 09:35:36;;;;;;;4.50;2.40;;;;;;;5.60;86.32;100166.72;5032484;28;20059;-59
2022/05/31 09:38:36;;;;;;;4.78;1.95;;;;;;;5.68;85.97;100173.63;5032478;28;20052;-59
2022/05/31 09:41:15;;;;;;;6.57;2.20;;;;;;;5.44;86.29;100154.56;5031581;28;20041;-59
2022/05/31 09:44:15;;;;;;;7.50;2.20;;;;;;;5.61;86.99;100163.25;5032175;28;20124;-60
2022/05/31 09:47:20;;;;;;;3.47;2.00;;;;;;;5.99;88.08;100159.91;5032305;28;20059;-60
2022/05/31 09:49:52;;;;;;;3.95;2.13;;;;;;;6.44;87.14;100168.53;5032417;28;20055;-59
2022/05/31 09:52:47;;;;;;;7.07;2.95;;;;;;;6.70;86.23;100175.41;5032278;28;20072;-59
2022/05/31 09:58:38;;;;;;;8.05;3.17;;;;;;;6.33;83.95;100175.44;5032699;28;20244;-60
2022/05/31 10:01:26;;;;;;;4.43;2.95;;;;;;;6.44;85.26;100172.84;5033070;28;20045;-59
2022/05/31 10:04:07;;;;;;;7.20;3.22;;;;;;;6.63;84.97;100173.69;5033491;28;20100;-59
2022/05/31 10:06:57;;;;;;;5.72;3.28;;;;;;;6.53;84.00;100135.63;5033069;28;20048;-59
2022/05/31 10:09:33;;;;;;;3.30;2.10;;;;;;;6.40;83.37;100156.41;5033225;28;20080;-59
2022/05/31 10:12:26;;;;;;;6.75;2.40;;;;;;;6.37;83.29;100194.50;5032991;28;20049;-60
2022/05/31 10:14:57;;;;;;;5.38;2.03;;;;;;;6.18;83.68;100196.22;5033065;28;20060;-60
2022/05/31 10:18:04;;;;;;;5.35;2.42;;;;;;;5.87;84.54;100206.53;5033124;28;20087;-60
2022/05/31 10:21:23;;;;;;;3.47;1.70;;;;;;;5.71;85.64;100200.44;5031445;28;20387;-60
2022/05/31 10:23:55;;;;;;;6.85;1.92;;;;;;;5.69;85.93;100206.47;5032239;28;20112;-60
2022/05/31 10:26:31;;;;;;;4.88;2.38;;;;;;;5.72;86.28;100190.94;5032964;28;20265;-60
2022/05/31 10:29:16;;;;;;;12.77;2.50;;;;;;;5.79;86.79;100166.72;5033328;28;20068;-60
2022/05/31 10:31:48;;;;;;;4.38;3.10;;;;;;;6.04;87.40;100173.72;5032962;28;20057;-60
2022/05/31 10:34:36;;;;;;;4.72;2.60;;;;;;;6.13;86.90;100152.09;5033216;28;20067;-59
2022/05/31 10:37:22;;;;;;;3.75;1.73;;;;;;;6.25;85.23;100185.81;5032059;28;20243;-59
2022/05/31 10:40:04;;;;;;;3.15;1.75;;;;;;;6.08;84.93;100194.47;5032578;28;20065;-58
2022/05/31 10:42:37;;;;;;;8.02;2.05;;;;;;;6.04;85.28;100199.66;5033074;28;20042;-59
2022/05/31 10:45:20;;;;;;;4.47;2.13;;;;;;;5.81;85.28;100202.16;5032557;28;20061;-59
2022/05/31 10:47:51;;;;;;;5.07;2.00;;;;;;;5.81;85.73;100203.91;5032526;28;20336;-59
2022/05/31 10:50:22;;;;;;;8.18;2.03;;;;;;;5.82;85.78;100210.84;5032710;28;20041;-58
2022/05/31 10:53:00;;;;;;;6.00;2.33;;;;;;;5.65;86.21;100199.56;5034169;28;20058;-60
2022/05/31 10:55:39;;;;;;;2.47;1.42;;;;;;;5.88;87.69;100207.38;5037097;28;20346;-59
2022/05/31 10:58:26;;;;;;;2.78;1.73;;;;;;;5.12;85.77;100108.72;5036643;28;20240;-58
2022/05/31 11:01:01;;;;;;;2.83;1.98;;;;;;;5.52;86.63;100198.66;5036079;28;20067;-58
2022/05/31 11:03:43;;;;;;;4.60;1.90;;;;;;;5.25;87.92;100191.66;5035809;28;20084;-59
2022/05/31 11:06:30;;;;;;;3.55;1.70;;;;;;;5.23;88.77;100175.22;5034968;28;20060;-58
2022/05/31 11:12:10;;;;;;;4.57;2.00;;;;;;;5.38;88.23;100206.38;5035205;28;20242;-58
2022/05/31 11:15:04;;;;;;;5.47;2.45;;;;;;;5.27;88.49;100197.72;5035245;28;20067;-58
2022/05/31 11:17:58;;;;;;;3.05;2.10;;;;;;;5.25;88.69;100227.91;5035380;28;20380;-59
2022/05/31 11:20:34;;;;;;;3.83;1.77;;;;;;;5.23;88.64;100221.88;5033674;28;20068;-59
2022/05/31 11:23:19;;;;;;;3.15;2.13;;;;;;;5.15;88.76;100196.78;5035321;28;20067;-59
2022/05/31 11:26:07;;;;;;;3.45;2.10;;;;;;;5.11;89.12;100197.63;5035280;28;20061;-59
2022/05/31 11:29:22;;;;;;;8.07;2.22;;;;;;;5.07;89.04;100219.19;5035264;28;20427;-60
2022/05/31 11:32:01;;;;;;;6.68;2.65;;;;;;;5.10;89.78;100211.44;5035864;28;20072;-59
2022/05/31 11:34:49;;;;;;;4.70;2.25;;;;;;;5.10;89.49;100220.94;5036159;28;20068;-59
2022/05/31 11:37:42;;;;;;;4.90;2.28;;;;;;;5.23;89.74;100216.69;5035721;28;20247;-59
2022/05/31 11:40:24;;;;;;;6.97;2.00;;;;;;;5.32;89.54;100220.19;5035714;28;20120;-59
2022/05/31 11:43:26;;;;;;;2.53;1.60;;;;;;;5.49;89.46;100209.00;5035195;28;20417;-59
2022/05/31 11:46:06;;;;;;;1.35;1.15;;;;;;;5.66;88.46;100196.09;5035482;28;20053;-59
2022/05/31 11:48:46;;;;;;;;;;;;;;;5.63;87.12;100187.44;5035983;28;20228;-58
2022/05/31 11:51:38;;;;;;;6.60;2.00;;;;;;;5.44;87.52;100195.16;5035682;28;20235;-59
2022/05/31 11:54:31;;;;;;;3.42;2.17;;;;;;;5.29;88.04;100201.16;5035675;28;20055;-59
2022/05/31 11:57:14;;;;;;;3.40;2.00;;;;;;;5.23;88.35;100207.19;5028596;28;20063;-60
2022/05/31 11:59:50;;;;;;;2.83;1.92;;;;;;;5.16;88.52;100202.81;5035517;28;20061;-59
2022/05/31 12:02:28;;;;;;;2.60;2.03;;;;;;;5.12;88.50;100186.41;5034685;28;20060;-59
2022/05/31 12:05:03;;;;;;;3.63;2.30;;;;;;;5.04;88.69;100175.16;5033626;28;20072;-60
2022/05/31 12:07:44;;;;;;;3.17;1.95;;;;;;;5.00;89.16;100178.59;5032043;28;20061;-60
2022/05/31 12:10:22;;;;;;;6.28;2.10;;;;;;;5.03;89.30;100191.53;5037770;28;20060;-60
2022/05/31 12:12:54;;;;;;;4.18;2.22;;;;;;;5.04;89.50;100189.81;5039108;28;20065;-59
2022/05/31 12:15:30;;;;;;;4.40;2.30;;;;;;;5.03;89.24;100188.94;5020975;28;20284;-60
2022/05/31 12:18:06;;;;;;;4.97;1.90;;;;;;;5.08;89.35;100187.25;5021733;28;20048;-60
2022/05/31 12:20:43;;;;;;;3.65;2.40;;;;;;;4.88;89.30;100147.44;5033564;28;20057;-60
2022/05/31 12:23:23;;;;;;;2.63;1.90;;;;;;;4.96;89.36;100177.69;5035247;28;20406;-60
2022/05/31 12:25:56;;;;;;;3.65;2.30;;;;;;;4.79;89.74;100121.50;5038758;28;20095;-59
2022/05/31 12:28:31;;;;;;;3.38;1.63;;;;;;;5.10;89.53;100138.06;5038504;28;20085;-59
2022/05/31 12:31:09;;;;;;;3.40;1.70;;;;;;;4.88;89.05;100090.50;5038763;28;20389;-60
2022/05/31 12:33:44;;;;;;;2.97;1.90;;;;;;;5.00;89.14;100120.75;5038547;28;20055;-60
2022/05/31 12:36:16;;;;;;;3.50;1.90;;;;;;;4.98;89.54;100113.84;5037834;28;20084;-60